createdAt,value
2023-08-07T00:00:08.483Z,100.00
2023-08-07T00:02:43.556Z,100.00
2023-08-07T00:05:16.987Z,100.00
2023-08-07T00:08:02.183Z,100.00
2023-08-07T00:10:45.093Z,100.00
2023-08-07T00:13:25.569Z,100.00
2023-08-07T00:16:11.434Z,100.00
2023-08-07T00:18:50.033Z,100.00
2023-08-07T00:21:23.415Z,100.00
2023-08-07T00:24:04.559Z,100.00
2023-08-07T00:26:45.890Z,100.00
2023-08-07T00:29:21.366Z,100.00
2023-08-07T00:31:58.429Z,100.00
2023-08-07T00:34:39.039Z,100.00
2023-08-07T00:37:24.827Z,100.00
2023-08-07T00:40:15.869Z,100.00
2023-08-07T00:42:58.588Z,100.00
2023-08-07T00:45:38.971Z,100.00
2023-08-07T00:48:22.935Z,100.00
2023-08-07T00:51:04.898Z,100.00
2023-08-07T00:53:46.694Z,100.00
2023-08-07T00:56:24.336Z,100.00
2023-08-07T00:59:02.382Z,100.00
2023-08-07T01:01:45.118Z,100.00
2023-08-07T01:04:20.310Z,100.00
2023-08-07T01:06:57.836Z,100.00
2023-08-07T01:09:36.828Z,100.00
2023-08-07T01:12:33.782Z,100.00
2023-08-07T01:15:29.218Z,100.00
2023-08-07T01:18:09.235Z,100.00
2023-08-07T01:20:49.955Z,100.00
2023-08-07T01:23:39.711Z,100.00
2023-08-07T01:26:22.773Z,100.00
2023-08-07T01:29:04.495Z,100.00
2023-08-07T01:31:52.864Z,100.00
2023-08-07T01:34:33.841Z,100.00
2023-08-07T01:37:09.408Z,100.00
2023-08-07T01:39:50.290Z,100.00
2023-08-07T01:42:27.365Z,100.00
2023-08-07T01:45:05.990Z,100.00
2023-08-07T01:47:38.317Z,100.00
2023-08-07T01:50:22.058Z,100.00
2023-08-07T01:53:03.970Z,100.00
2023-08-07T01:58:46.148Z,100.00
2023-08-07T02:01:28.600Z,100.00
2023-08-07T02:04:08.775Z,100.00
2023-08-07T02:06:47.914Z,100.00
2023-08-07T02:09:24.082Z,100.00
2023-08-07T02:12:05.080Z,100.00
2023-08-07T02:14:40.120Z,100.00
2023-08-07T02:17:17.461Z,100.00
2023-08-07T02:19:56.284Z,100.00
2023-08-07T02:22:31.577Z,100.00
2023-08-07T02:25:14.124Z,100.00
2023-08-07T02:27:57.617Z,100.00
2023-08-07T02:30:39.946Z,100.00
2023-08-07T02:33:27.973Z,100.00
2023-08-07T02:36:09.416Z,100.00
2023-08-07T02:38:50.607Z,100.00
2023-08-07T02:41:30.154Z,100.00
2023-08-07T02:44:21.019Z,100.00
2023-08-07T02:47:07.140Z,100.00
2023-08-07T02:49:46.602Z,100.00
2023-08-07T02:52:23.972Z,100.00
2023-08-07T02:55:04.007Z,100.00
2023-08-07T02:57:44.932Z,100.00
2023-08-07T03:00:44.955Z,100.00
2023-08-07T03:03:20.155Z,100.00
2023-08-07T03:06:08.064Z,100.00
2023-08-07T03:08:43.782Z,100.00
2023-08-07T03:11:26.687Z,100.00
2023-08-07T03:14:04.815Z,100.00
2023-08-07T03:16:46.032Z,100.00
2023-08-07T03:19:25.548Z,100.00
2023-08-07T03:22:17.169Z,100.00
2023-08-07T03:24:56.744Z,100.00
2023-08-07T03:27:37.554Z,100.00
2023-08-07T03:30:16.542Z,100.00
2023-08-07T03:32:58.841Z,100.00
2023-08-07T03:35:37.865Z,100.00
2023-08-07T03:38:10.158Z,100.00
2023-08-07T03:40:53.105Z,100.00
2023-08-07T03:43:29.770Z,100.00
2023-08-07T03:46:09.981Z,100.00
2023-08-07T03:48:54.738Z,100.00
2023-08-07T03:51:38.495Z,100.00
2023-08-07T03:54:18.403Z,100.00
2023-08-07T03:56:58.716Z,100.00
2023-08-07T03:59:31.449Z,100.00
2023-08-07T04:02:06.253Z,100.00
2023-08-07T04:04:45.931Z,100.00
2023-08-07T04:07:25.035Z,100.00
2023-08-07T04:10:03.900Z,100.00
2023-08-07T04:12:39.200Z,100.00
2023-08-07T04:15:31.108Z,100.00
2023-08-07T04:18:06.523Z,100.00
2023-08-07T04:20:43.990Z,100.00
2023-08-07T04:23:25.186Z,100.00
2023-08-07T04:26:00.163Z,100.00
2023-08-07T04:28:40.463Z,100.00
2023-08-07T04:31:19.787Z,100.00
2023-08-07T04:33:56.820Z,100.00
2023-08-07T04:36:36.903Z,100.00
2023-08-07T04:39:21.504Z,100.00
2023-08-07T04:41:57.270Z,100.00
2023-08-07T04:44:38.749Z,100.00
2023-08-07T04:47:14.727Z,100.00
2023-08-07T04:49:58.112Z,100.00
2023-08-07T04:52:36.793Z,100.00
2023-08-07T04:55:18.067Z,100.00
2023-08-07T04:57:59.189Z,100.00
2023-08-07T05:00:38.450Z,100.00
2023-08-07T05:03:08.996Z,100.00
2023-08-07T05:05:54.026Z,100.00
2023-08-07T05:08:39.532Z,100.00
2023-08-07T05:11:20.422Z,99.01
2023-08-07T05:13:57.029Z,98.96
2023-08-07T05:16:33.189Z,98.88
2023-08-07T05:19:06.722Z,98.71
2023-08-07T05:21:56.606Z,98.31
2023-08-07T05:24:40.599Z,98.31
2023-08-07T05:27:18.521Z,97.53
2023-08-07T05:29:51.318Z,97.67
2023-08-07T05:32:26.284Z,97.13
2023-08-07T05:34:59.371Z,97.08
2023-08-07T05:37:40.881Z,97.52
2023-08-07T05:40:31.795Z,97.48
2023-08-07T05:43:03.140Z,97.95
2023-08-07T05:45:38.504Z,97.34
2023-08-07T05:48:13.343Z,98.14
2023-08-07T05:51:00.333Z,98.34
2023-08-07T05:53:43.524Z,97.49
2023-08-07T05:56:37.111Z,97.96
2023-08-07T05:59:16.198Z,98.40
2023-08-07T06:01:58.961Z,97.74
2023-08-07T06:04:37.966Z,97.97
2023-08-07T06:07:15.936Z,96.45
2023-08-07T06:09:49.194Z,97.47
2023-08-07T06:12:30.283Z,96.93
2023-08-07T06:15:05.254Z,96.45
2023-08-07T06:17:46.231Z,95.50
2023-08-07T06:20:29.280Z,95.31
2023-08-07T06:23:15.917Z,95.78
2023-08-07T06:25:58.636Z,94.57
2023-08-07T06:28:41.685Z,92.19
2023-08-07T06:31:33.994Z,91.94
2023-08-07T06:34:17.560Z,90.28
2023-08-07T06:36:55.485Z,87.54
2023-08-07T06:42:40.139Z,84.32
2023-08-07T06:45:14.813Z,83.41
2023-08-07T06:47:47.250Z,80.75
2023-08-07T06:50:40.560Z,78.18
2023-08-07T06:53:12.572Z,80.37
2023-08-07T06:58:31.409Z,82.00
2023-08-07T07:01:14.628Z,81.84
2023-08-07T07:03:54.275Z,81.84
2023-08-07T07:06:29.688Z,81.62
2023-08-07T07:09:10.295Z,79.50
2023-08-07T07:11:43.330Z,80.00
2023-08-07T07:14:24.319Z,78.94
2023-08-07T07:17:08.502Z,77.24
2023-08-07T07:19:41.316Z,78.09
2023-08-07T07:22:19.548Z,74.86
2023-08-07T07:24:58.907Z,74.10
2023-08-07T07:27:36.809Z,76.75
2023-08-07T07:30:13.088Z,75.09
2023-08-07T07:33:02.506Z,75.41
2023-08-07T07:35:42.535Z,76.04
2023-08-07T07:38:15.793Z,75.92
2023-08-07T07:40:47.962Z,74.92
2023-08-07T07:43:24.202Z,75.34
2023-08-07T07:46:09.910Z,75.46
2023-08-07T07:48:54.663Z,75.89
2023-08-07T07:51:25.538Z,73.16
2023-08-07T07:54:13.732Z,72.87
2023-08-07T07:56:52.522Z,70.55
2023-08-07T07:59:35.004Z,69.53
2023-08-07T08:02:15.792Z,63.59
2023-08-07T08:04:55.574Z,64.86
2023-08-07T08:07:31.032Z,60.79
2023-08-07T08:10:05.989Z,62.25
2023-08-07T08:12:40.548Z,61.78
2023-08-07T08:15:26.412Z,60.02
2023-08-07T08:18:06.545Z,62.16
2023-08-07T08:20:45.891Z,61.02
2023-08-07T08:23:27.605Z,61.90
2023-08-07T08:26:06.772Z,60.54
2023-08-07T08:28:47.212Z,59.75
2023-08-07T08:31:37.763Z,59.50
2023-08-07T08:34:19.173Z,57.52
2023-08-07T08:37:05.126Z,59.71
2023-08-07T08:39:46.260Z,57.89
2023-08-07T08:42:26.927Z,55.90
2023-08-07T08:45:18.390Z,56.78
2023-08-07T08:47:53.804Z,56.07
2023-08-07T08:50:35.543Z,53.59
2023-08-07T08:53:17.723Z,55.01
2023-08-07T08:55:55.298Z,54.63
2023-08-07T08:58:41.860Z,54.60
2023-08-07T09:01:16.639Z,57.45
2023-08-07T09:03:54.807Z,57.03
2023-08-07T09:06:44.418Z,57.96
2023-08-07T09:09:26.114Z,55.54
2023-08-07T09:12:10.093Z,56.24
2023-08-07T09:14:50.207Z,53.79
2023-08-07T09:17:32.853Z,54.84
2023-08-07T09:20:09.408Z,57.52
2023-08-07T09:22:52.730Z,56.69
2023-08-07T09:25:46.798Z,56.22
2023-08-07T09:28:19.166Z,58.94
2023-08-07T09:31:03.152Z,58.75
2023-08-07T09:33:40.191Z,58.57
2023-08-07T09:36:17.993Z,56.90
2023-08-07T09:39:00.442Z,56.01
2023-08-07T09:41:42.039Z,56.75
2023-08-07T09:44:20.414Z,53.75
2023-08-07T09:46:54.953Z,55.76
2023-08-07T09:49:43.766Z,55.96
2023-08-07T09:52:22.434Z,55.32
2023-08-07T09:54:53.979Z,60.05
2023-08-07T09:57:32.392Z,57.78
2023-08-07T10:00:08.349Z,56.83
2023-08-07T10:03:11.034Z,57.28
2023-08-07T10:05:57.913Z,55.41
2023-08-07T10:08:32.449Z,55.79
2023-08-07T10:11:08.347Z,55.46
2023-08-07T10:13:56.220Z,56.28
2023-08-07T10:16:43.504Z,57.46
2023-08-07T10:19:23.336Z,58.10
2023-08-07T10:22:02.319Z,56.20
2023-08-07T10:24:37.783Z,56.58
2023-08-07T10:27:15.675Z,55.40
2023-08-07T10:30:08.282Z,53.93
2023-08-07T10:32:55.283Z,54.65
2023-08-07T10:35:37.737Z,55.26
2023-08-07T10:38:18.043Z,54.73
2023-08-07T10:44:03.627Z,54.82
2023-08-07T10:46:57.442Z,54.32
2023-08-07T10:49:57.208Z,53.01
2023-08-07T10:52:35.721Z,54.41
2023-08-07T10:55:19.549Z,56.30
2023-08-07T10:57:53.056Z,59.15
2023-08-07T11:00:34.495Z,58.35
2023-08-07T11:03:18.413Z,57.85
2023-08-07T11:05:55.198Z,56.89
2023-08-07T11:08:31.075Z,57.99
2023-08-07T11:11:08.737Z,55.19
2023-08-07T11:13:54.825Z,57.12
2023-08-07T11:16:30.582Z,57.90
2023-08-07T11:19:12.236Z,57.96
2023-08-07T11:21:52.393Z,56.45
2023-08-07T11:24:32.305Z,57.82
2023-08-07T11:29:56.647Z,56.29
2023-08-07T11:32:38.769Z,56.28
2023-08-07T11:35:18.406Z,54.43
2023-08-07T11:38:17.954Z,52.29
2023-08-07T11:40:52.413Z,54.42
2023-08-07T11:43:29.121Z,54.35
2023-08-07T11:46:04.908Z,53.94
2023-08-07T11:48:41.168Z,51.50
2023-08-07T11:51:25.278Z,51.83
2023-08-07T11:54:02.372Z,53.43
2023-08-07T11:56:38.632Z,51.84
2023-08-07T11:59:14.033Z,52.54
2023-08-07T12:01:52.713Z,53.92
2023-08-07T12:04:23.735Z,53.71
2023-08-07T12:07:06.303Z,54.29
2023-08-07T12:09:39.228Z,55.26
2023-08-07T12:12:17.664Z,54.74
2023-08-07T12:14:48.727Z,52.55
2023-08-07T12:17:25.833Z,50.95
2023-08-07T12:20:03.943Z,53.37
2023-08-07T12:22:43.434Z,51.32
2023-08-07T12:25:23.823Z,52.49
2023-08-07T12:27:59.752Z,50.13
2023-08-07T12:30:41.904Z,48.92
2023-08-07T12:33:14.109Z,50.74
2023-08-07T12:36:02.222Z,53.02
2023-08-07T12:38:46.339Z,53.30
2023-08-07T12:44:20.292Z,49.66
2023-08-07T12:47:10.295Z,50.23
2023-08-07T12:49:46.454Z,46.72
2023-08-07T12:52:24.485Z,47.98
2023-08-07T12:55:07.848Z,49.56
2023-08-07T12:57:47.185Z,50.91
2023-08-07T13:00:22.874Z,49.36
2023-08-07T13:02:57.962Z,49.38
2023-08-07T13:05:38.581Z,47.82
2023-08-07T13:08:12.258Z,47.40
2023-08-07T13:10:50.288Z,46.19
2023-08-07T13:13:35.491Z,45.71
2023-08-07T13:16:10.968Z,44.20
2023-08-07T13:18:52.507Z,45.78
2023-08-07T13:21:22.860Z,46.24
2023-08-07T13:23:57.941Z,47.00
2023-08-07T13:26:48.582Z,46.17
2023-08-07T13:29:23.228Z,46.18
2023-08-07T13:32:07.906Z,46.29
2023-08-07T13:34:46.704Z,49.94
2023-08-07T13:37:23.798Z,46.46
2023-08-07T13:39:58.082Z,48.11
2023-08-07T13:45:32.415Z,49.57
2023-08-07T13:48:15.057Z,51.41
2023-08-07T13:50:51.377Z,52.35
2023-08-07T13:53:25.986Z,52.95
2023-08-07T13:56:00.516Z,57.72
2023-08-07T13:58:38.884Z,71.42
2023-08-07T14:01:19.418Z,72.30
2023-08-07T14:03:56.779Z,75.10
2023-08-07T14:06:44.561Z,77.26
2023-08-07T14:09:26.557Z,83.42
2023-08-07T14:12:05.452Z,86.47
2023-08-07T14:14:56.826Z,87.88
2023-08-07T14:17:27.548Z,91.05
2023-08-07T14:20:06.632Z,91.06
2023-08-07T14:22:38.064Z,92.32
2023-08-07T14:25:13.607Z,91.56
2023-08-07T14:27:59.076Z,89.90
2023-08-07T14:30:53.494Z,89.90
2023-08-07T14:33:23.841Z,90.25
2023-08-07T14:36:03.564Z,90.24
2023-08-07T14:38:42.510Z,90.19
2023-08-07T14:41:20.885Z,91.65
2023-08-07T14:43:59.775Z,92.42
2023-08-07T14:46:53.386Z,94.05
2023-08-07T14:49:49.199Z,93.67
2023-08-07T14:52:24.653Z,87.72
2023-08-07T14:55:03.253Z,87.23
2023-08-07T14:57:49.437Z,85.80
2023-08-07T15:00:28.870Z,85.93
2023-08-07T15:03:19.872Z,86.77
2023-08-07T15:05:50.481Z,86.20
2023-08-07T15:11:03.179Z,87.54
2023-08-07T15:13:38.283Z,86.92
2023-08-07T15:16:19.535Z,84.28
2023-08-07T15:18:57.886Z,82.53
2023-08-07T15:21:32.652Z,83.07
2023-08-07T15:24:19.031Z,82.96
2023-08-07T15:26:54.187Z,82.48
2023-08-07T15:29:33.501Z,82.15
2023-08-07T15:32:24.110Z,82.89
2023-08-07T15:35:02.406Z,83.04
2023-08-07T15:37:41.592Z,83.69
2023-08-07T15:40:19.378Z,82.92
2023-08-07T15:42:54.157Z,83.87
2023-08-07T15:45:29.112Z,82.57
2023-08-07T15:48:11.377Z,79.53
2023-08-07T15:51:04.140Z,78.55
2023-08-07T15:53:43.474Z,78.65
2023-08-07T15:56:18.278Z,79.21
2023-08-07T15:58:55.210Z,78.51
2023-08-07T16:01:30.899Z,78.85
2023-08-07T16:04:16.117Z,78.97
2023-08-07T16:06:58.029Z,82.67
2023-08-07T16:09:38.186Z,83.19
2023-08-07T16:12:21.834Z,73.99
2023-08-07T16:15:00.206Z,77.48
2023-08-07T16:17:40.468Z,78.85
2023-08-07T16:20:20.614Z,81.77
2023-08-07T16:23:01.723Z,83.15
2023-08-07T16:25:41.839Z,83.41
2023-08-07T16:28:20.000Z,81.75
2023-08-07T16:30:57.054Z,76.42
2023-08-07T16:33:40.044Z,71.75
2023-08-07T16:36:17.623Z,73.07
2023-08-07T16:39:06.411Z,71.05
2023-08-07T16:41:50.354Z,71.71
2023-08-07T16:44:23.136Z,69.97
2023-08-07T16:47:04.267Z,70.39
2023-08-07T16:49:37.301Z,68.67
2023-08-07T16:52:17.927Z,71.42
2023-08-07T16:55:19.692Z,73.77
2023-08-07T16:58:02.305Z,73.71
2023-08-07T17:00:43.268Z,76.21
2023-08-07T17:03:22.540Z,76.74
2023-08-07T17:05:54.776Z,75.66
2023-08-07T17:08:28.534Z,77.05
2023-08-07T17:11:23.498Z,75.86
2023-08-07T17:14:09.212Z,77.58
2023-08-07T17:16:49.496Z,77.63
2023-08-07T17:19:29.286Z,78.80
2023-08-07T17:22:08.424Z,76.97
2023-08-07T17:24:50.768Z,77.24
2023-08-07T17:27:31.847Z,79.17
2023-08-07T17:30:08.852Z,78.39
2023-08-07T17:32:53.113Z,76.09
2023-08-07T17:35:33.600Z,72.82
2023-08-07T17:38:14.265Z,71.60
2023-08-07T17:40:54.109Z,71.37
2023-08-07T17:43:39.242Z,72.41
2023-08-07T17:46:17.652Z,73.95
2023-08-07T17:48:54.701Z,74.91
2023-08-07T17:51:31.571Z,76.15
2023-08-07T17:54:06.463Z,77.26
2023-08-07T17:56:38.509Z,77.18
2023-08-07T17:59:21.116Z,77.54
2023-08-07T18:02:02.486Z,78.61
2023-08-07T18:04:32.733Z,78.79
2023-08-07T18:07:05.137Z,79.22
2023-08-07T18:09:39.509Z,79.81
2023-08-07T18:12:15.471Z,81.17
2023-08-07T18:15:01.543Z,80.44
2023-08-07T18:17:34.077Z,82.48
2023-08-07T18:20:16.649Z,82.57
2023-08-07T18:22:55.282Z,80.68
2023-08-07T18:25:34.426Z,79.19
2023-08-07T18:28:13.466Z,78.58
2023-08-07T18:30:54.862Z,77.17
2023-08-07T18:33:28.754Z,76.19
2023-08-07T18:36:09.168Z,75.97
2023-08-07T18:38:43.070Z,75.58
2023-08-07T18:41:17.381Z,75.55
2023-08-07T18:44:09.519Z,74.97
2023-08-07T18:46:47.756Z,74.62
2023-08-07T18:49:29.747Z,74.20
2023-08-07T18:52:02.422Z,74.92
2023-08-07T18:54:44.804Z,74.84
2023-08-07T18:57:25.361Z,75.48
2023-08-07T19:00:01.593Z,75.09
2023-08-07T19:02:46.517Z,75.42
2023-08-07T19:05:26.851Z,75.60
2023-08-07T19:08:03.268Z,75.57
2023-08-07T19:10:41.084Z,75.89
2023-08-07T19:13:15.167Z,76.31
2023-08-07T19:15:51.108Z,76.50
2023-08-07T19:18:28.558Z,75.91
2023-08-07T19:21:09.003Z,76.96
2023-08-07T19:23:48.166Z,76.75
2023-08-07T19:26:20.042Z,77.09
2023-08-07T19:28:51.675Z,75.86
2023-08-07T19:31:32.840Z,77.24
2023-08-07T19:34:18.320Z,77.25
2023-08-07T19:36:52.065Z,77.54
2023-08-07T19:39:26.767Z,77.80
2023-08-07T19:41:57.185Z,79.15
2023-08-07T19:44:29.157Z,79.02
2023-08-07T19:47:06.816Z,79.74
2023-08-07T19:49:46.858Z,78.64
2023-08-07T19:52:21.356Z,81.08
2023-08-07T19:55:08.998Z,78.62
2023-08-07T19:57:51.011Z,77.72
2023-08-07T20:00:24.465Z,74.01
2023-08-07T20:03:02.759Z,74.84
2023-08-07T20:05:53.116Z,78.19
2023-08-07T20:08:33.523Z,75.00
2023-08-07T20:11:10.968Z,78.65
2023-08-07T20:13:48.739Z,77.24
2023-08-07T20:16:36.364Z,77.71
2023-08-07T20:19:14.092Z,79.03
2023-08-07T20:22:04.134Z,79.20
2023-08-07T20:24:36.161Z,75.73
2023-08-07T20:27:13.716Z,76.17
2023-08-07T20:29:46.196Z,78.03
2023-08-07T20:32:24.673Z,74.43
2023-08-07T20:34:54.975Z,73.07
2023-08-07T20:37:36.814Z,74.38
2023-08-07T20:40:21.641Z,73.07
2023-08-07T20:42:59.164Z,73.29
2023-08-07T20:45:47.207Z,73.06
2023-08-07T20:48:21.624Z,73.23
2023-08-07T20:51:01.180Z,73.71
2023-08-07T20:53:50.416Z,73.58
2023-08-07T20:56:31.876Z,74.14
2023-08-07T20:59:13.271Z,74.70
2023-08-07T21:01:52.877Z,72.55
2023-08-07T21:04:39.722Z,73.89
2023-08-07T21:07:19.117Z,73.75
2023-08-07T21:10:10.981Z,74.42
2023-08-07T21:12:49.551Z,74.51
2023-08-07T21:15:29.589Z,74.15
2023-08-07T21:18:29.249Z,74.38
2023-08-07T21:21:08.834Z,75.76
2023-08-07T21:23:45.052Z,76.34
2023-08-07T21:26:34.369Z,76.30
2023-08-07T21:29:13.729Z,75.93
2023-08-07T21:31:47.921Z,75.00
2023-08-07T21:34:21.022Z,75.81
2023-08-07T21:36:55.030Z,76.15
2023-08-07T21:39:30.955Z,75.80
2023-08-07T21:42:10.952Z,75.81
2023-08-07T21:44:52.474Z,75.13
2023-08-07T21:47:39.465Z,75.07
2023-08-07T21:50:19.391Z,76.11
2023-08-07T21:53:14.624Z,75.79
2023-08-07T21:55:56.066Z,76.15
2023-08-07T21:58:49.638Z,76.41
2023-08-07T22:01:23.426Z,76.07
2023-08-07T22:04:03.657Z,77.00
2023-08-07T22:06:47.488Z,77.47
2023-08-07T22:09:20.854Z,77.15
2023-08-07T22:11:52.693Z,76.72
2023-08-07T22:14:54.842Z,77.28
2023-08-07T22:17:28.061Z,77.96
2023-08-07T22:20:05.377Z,78.40
2023-08-07T22:22:41.593Z,79.03
2023-08-07T22:25:24.930Z,77.96
2023-08-07T22:28:04.528Z,77.95
2023-08-07T22:30:55.123Z,78.33
2023-08-07T22:33:33.350Z,78.60
2023-08-07T22:36:16.405Z,78.29
2023-08-07T22:38:49.646Z,77.00
2023-08-07T22:41:24.959Z,77.77
2023-08-07T22:44:18.604Z,78.21
2023-08-07T22:47:11.056Z,77.14
2023-08-07T22:49:52.518Z,77.78
2023-08-07T22:52:24.998Z,77.82
2023-08-07T22:55:08.684Z,77.34
2023-08-07T22:57:49.235Z,77.24
2023-08-07T23:00:24.061Z,76.92
2023-08-07T23:03:00.083Z,77.68
2023-08-07T23:05:36.432Z,77.55
2023-08-07T23:08:16.177Z,76.96
2023-08-07T23:10:54.797Z,76.60
2023-08-07T23:13:36.780Z,74.60
2023-08-07T23:16:08.952Z,75.27
2023-08-07T23:19:10.665Z,74.32
2023-08-07T23:21:47.667Z,74.84
2023-08-07T23:24:21.866Z,75.99
2023-08-07T23:27:03.191Z,76.37
2023-08-07T23:29:35.016Z,76.61
2023-08-07T23:32:12.107Z,77.89
2023-08-07T23:34:52.720Z,79.16
2023-08-07T23:37:27.330Z,79.70
2023-08-07T23:40:07.342Z,80.21
2023-08-07T23:42:46.605Z,81.25
2023-08-07T23:45:25.718Z,81.25
2023-08-07T23:48:02.884Z,81.81
2023-08-07T23:50:52.018Z,81.99
2023-08-07T23:53:40.437Z,82.47
2023-08-07T23:56:19.235Z,83.36
2023-08-07T23:58:55.772Z,83.10
